Time;durP1;ratioP1;P1;durP2;ratioP2;P2;SDS_P1;SDS_P2;PMS_P1;PMS_P2;Temp;Humidity;BMP_temperature;BMP_pressure;BME280_temperature;BME280_humidity;BME280_pressure;Samples;Min_cycle;Max_cycle;Signal;HPM_P1;HPM_P2
2021/08/14 00:00:55;;;;;;;13.30;9.40;;;26.10;58.70;;;;;;6097969;28;80409;-65
2021/08/14 00:03:55;;;;;;;20.50;10.85;;;26.10;58.60;;;;;;6108067;28;83257;-65
2021/08/14 00:06:56;;;;;;;16.40;9.73;;;26.10;58.60;;;;;;6101555;28;83331;-65
2021/08/14 00:09:56;;;;;;;16.20;9.60;;;26.10;58.50;;;;;;6113074;28;83032;-65
2021/08/14 00:12:57;;;;;;;16.77;8.73;;;26.10;58.20;;;;;;6112862;28;80540;-65
2021/08/14 00:15:57;;;;;;;14.32;9.70;;;26.00;57.80;;;;;;6113527;28;80561;-65
2021/08/14 00:18:58;;;;;;;11.80;8.20;;;26.00;57.80;;;;;;6113474;28;81836;-65
2021/08/14 00:21:58;;;;;;;18.17;9.10;;;26.00;57.60;;;;;;6111393;28;87422;-64
2021/08/14 00:24:59;;;;;;;14.38;8.75;;;25.90;57.40;;;;;;6100420;28;80704;-65
2021/08/14 00:27:59;;;;;;;10.88;8.07;;;25.90;57.40;;;;;;6109181;28;80831;-64
2021/08/14 00:31:00;;;;;;;12.35;7.93;;;25.90;57.30;;;;;;6094016;28;81630;-65
2021/08/14 00:34:00;;;;;;;17.13;8.98;;;25.90;57.20;;;;;;6110696;28;80570;-63
2021/08/14 00:37:01;;;;;;;15.57;9.00;;;25.90;57.40;;;;;;6108523;28;82964;-63
2021/08/14 00:40:01;;;;;;;12.57;8.27;;;25.80;57.40;;;;;;6110732;28;80906;-63
2021/08/14 00:43:02;;;;;;;13.48;8.25;;;25.80;57.40;;;;;;6098199;28;81415;-64
2021/08/14 00:46:02;;;;;;;15.00;8.30;;;25.90;57.60;;;;;;6109791;28;80653;-62
2021/08/14 00:49:03;;;;;;;12.02;9.02;;;25.80;57.40;;;;;;6105801;28;80685;-61
2021/08/14 00:52:04;;;;;;;12.38;8.30;;;25.80;57.50;;;;;;6111702;28;81516;-63
2021/08/14 00:55:04;;;;;;;11.20;8.98;;;25.80;57.40;;;;;;6104569;28;80522;-63
2021/08/14 00:58:05;;;;;;;15.15;8.55;;;25.80;57.60;;;;;;6106204;28;80443;-62
2021/08/14 01:01:05;;;;;;;13.30;8.43;;;25.80;57.40;;;;;;6084781;28;80317;-63
2021/08/14 01:04:06;;;;;;;11.45;8.00;;;25.80;57.60;;;;;;6086792;28;80501;-63
2021/08/14 01:07:06;;;;;;;11.40;8.65;;;25.90;58.10;;;;;;6087878;28;80882;-62
2021/08/14 01:10:07;;;;;;;11.85;8.68;;;25.90;57.70;;;;;;6087793;28;80335;-62
2021/08/14 01:13:07;;;;;;;14.18;8.98;;;25.90;57.80;;;;;;6084437;28;80830;-63
2021/08/14 01:16:07;;;;;;;12.10;8.68;;;25.90;57.80;;;;;;6095474;28;81094;-64
2021/08/14 01:19:08;;;;;;;12.60;8.88;;;25.90;57.60;;;;;;6110478;28;80979;-62
2021/08/14 01:22:09;;;;;;;12.88;9.27;;;25.90;57.50;;;;;;6089102;28;81195;-62
2021/08/14 01:25:09;;;;;;;11.68;7.97;;;25.90;57.80;;;;;;6093698;28;80214;-62
2021/08/14 01:28:10;;;;;;;13.77;8.80;;;25.90;57.60;;;;;;6093360;28;81187;-62
2021/08/14 01:31:10;;;;;;;12.18;8.35;;;25.90;57.60;;;;;;6093471;28;80448;-62
2021/08/14 01:34:11;;;;;;;13.35;8.68;;;25.90;57.60;;;;;;6066385;28;81380;-63
2021/08/14 01:37:11;;;;;;;12.27;8.35;;;25.90;57.70;;;;;;6085527;28;81293;-63
2021/08/14 01:40:12;;;;;;;12.20;8.70;;;25.90;57.60;;;;;;6086355;28;80581;-63
2021/08/14 01:43:12;;;;;;;11.82;8.50;;;25.90;57.60;;;;;;6090498;28;80416;-63
2021/08/14 01:46:13;;;;;;;11.77;8.60;;;25.90;57.70;;;;;;6108645;28;80401;-64
2021/08/14 01:49:13;;;;;;;13.30;9.30;;;25.90;57.60;;;;;;6101613;28;80751;-63
2021/08/14 01:52:14;;;;;;;11.98;9.05;;;26.00;57.90;;;;;;6086673;28;81052;-63
2021/08/14 01:55:14;;;;;;;12.43;8.90;;;25.90;57.70;;;;;;6083659;28;81258;-65
2021/08/14 01:58:15;;;;;;;12.55;9.35;;;26.00;57.80;;;;;;6084870;28;80182;-64
2021/08/14 02:01:15;;;;;;;13.70;8.85;;;26.00;57.70;;;;;;6082676;28;80622;-64
2021/08/14 02:04:16;;;;;;;13.77;8.90;;;26.00;57.60;;;;;;6084976;28;80796;-63
2021/08/14 02:07:17;;;;;;;12.38;8.57;;;26.00;57.70;;;;;;6083230;28;81404;-63
2021/08/14 02:10:18;;;;;;;10.88;8.23;;;25.90;57.60;;;;;;6083921;28;82351;-64
2021/08/14 02:13:18;;;;;;;13.93;9.18;;;26.00;57.50;;;;;;6080630;28;81774;-63
2021/08/14 02:16:19;;;;;;;12.77;9.52;;;25.90;57.30;;;;;;6079429;28;80366;-63
2021/08/14 02:19:20;;;;;;;13.85;8.82;;;26.00;57.50;;;;;;6083511;28;80496;-63
2021/08/14 02:22:20;;;;;;;11.55;9.23;;;26.00;57.60;;;;;;6083436;28;80420;-62
2021/08/14 02:25:20;;;;;;;13.65;9.05;;;26.00;57.70;;;;;;6086358;28;80521;-62
2021/08/14 02:28:21;;;;;;;13.45;9.10;;;25.90;57.90;;;;;;6083591;28;82021;-63
2021/08/14 02:31:21;;;;;;;16.88;9.73;;;26.00;58.00;;;;;;6085771;28;81102;-63
2021/08/14 02:34:22;;;;;;;13.73;9.48;;;25.90;58.20;;;;;;6085431;28;80341;-64
2021/08/14 02:37:22;;;;;;;12.30;9.18;;;25.90;58.00;;;;;;6084335;28;81629;-64
2021/08/14 02:40:23;;;;;;;12.18;9.07;;;26.00;57.80;;;;;;6083554;28;80990;-62
2021/08/14 02:43:23;;;;;;;13.65;9.10;;;26.00;57.90;;;;;;6081193;28;80919;-62
2021/08/14 02:46:24;;;;;;;14.90;9.60;;;26.00;58.00;;;;;;6090602;28;80123;-62
2021/08/14 02:49:24;;;;;;;12.93;9.05;;;26.00;58.30;;;;;;6109263;28;80966;-62
2021/08/14 02:52:25;;;;;;;15.98;9.48;;;26.00;58.20;;;;;;6110012;28;80851;-63
2021/08/14 02:55:25;;;;;;;11.25;8.98;;;25.90;57.90;;;;;;6101741;28;81672;-63
2021/08/14 02:58:27;;;;;;;15.82;9.48;;;25.90;57.80;;;;;;6092521;28;80342;-63
2021/08/14 03:01:28;;;;;;;12.85;9.18;;;25.90;58.00;;;;;;6085373;28;80450;-63
2021/08/14 03:04:28;;;;;;;14.48;9.30;;;25.90;58.20;;;;;;6084592;28;80351;-63
2021/08/14 03:07:29;;;;;;;13.43;9.52;;;25.90;58.30;;;;;;6085388;28;80843;-62
2021/08/14 03:10:29;;;;;;;14.90;9.80;;;26.00;58.50;;;;;;6084664;28;81605;-62
2021/08/14 03:13:30;;;;;;;14.95;10.05;;;25.90;58.60;;;;;;6083084;28;80346;-63
2021/08/14 03:16:30;;;;;;;19.77;11.13;;;25.90;58.80;;;;;;6080968;28;83077;-63
2021/08/14 03:19:31;;;;;;;21.38;11.45;;;26.00;58.90;;;;;;6081950;28;84031;-63
2021/08/14 03:22:31;;;;;;;18.48;10.77;;;25.90;58.90;;;;;;6078991;28;83864;-63
2021/08/14 03:25:32;;;;;;;13.82;9.95;;;26.00;58.90;;;;;;6075305;28;83954;-63
2021/08/14 03:28:32;;;;;;;14.82;10.55;;;25.90;58.80;;;;;;6080995;28;82929;-62
2021/08/14 03:31:32;;;;;;;15.50;10.65;;;26.00;59.00;;;;;;6081025;28;84140;-62
2021/08/14 03:34:33;;;;;;;21.30;10.05;;;25.90;59.00;;;;;;6088663;28;84886;-62
2021/08/14 03:37:33;;;;;;;16.25;11.10;;;26.00;59.00;;;;;;6101679;28;83867;-63
2021/08/14 03:40:34;;;;;;;14.35;10.40;;;25.90;59.00;;;;;;6102611;28;84155;-62
2021/08/14 03:43:34;;;;;;;14.60;10.40;;;25.90;59.10;;;;;;6108391;28;84284;-62
2021/08/14 03:46:35;;;;;;;15.73;10.43;;;25.90;59.20;;;;;;6090196;28;85935;-62
2021/08/14 03:49:35;;;;;;;16.30;10.90;;;25.90;59.30;;;;;;6107657;28;83709;-62
2021/08/14 03:52:36;;;;;;;15.80;9.93;;;25.90;59.30;;;;;;6105919;28;83387;-62
2021/08/14 03:55:36;;;;;;;15.50;10.40;;;25.90;59.10;;;;;;6112960;28;83677;-62
2021/08/14 03:58:37;;;;;;;18.08;10.15;;;25.90;59.10;;;;;;6108093;28;83073;-62
2021/08/14 04:01:39;;;;;;;17.20;10.90;;;25.90;58.90;;;;;;6109544;28;84325;-63
2021/08/14 04:04:39;;;;;;;19.80;10.85;;;25.90;58.60;;;;;;6110022;28;84004;-63
2021/08/14 04:07:39;;;;;;;13.77;9.50;;;25.70;58.20;;;;;;6109168;28;83507;-63
2021/08/14 04:10:41;;;;;;;20.65;12.45;;;25.80;58.50;;;;;;6112635;28;83071;-63
2021/08/14 04:13:41;;;;;;;13.65;9.57;;;25.70;57.90;;;;;;6108761;28;83438;-63
2021/08/14 04:16:42;;;;;;;16.38;9.05;;;25.70;57.40;;;;;;6111244;28;83006;-63
2021/08/14 04:19:42;;;;;;;10.32;8.57;;;25.70;57.40;;;;;;6113713;28;80327;-63
2021/08/14 04:22:43;;;;;;;13.10;8.73;;;25.70;57.90;;;;;;6114539;28;83279;-63
2021/08/14 04:25:43;;;;;;;14.10;9.38;;;25.70;58.10;;;;;;6105141;28;80873;-63
2021/08/14 04:28:44;;;;;;;15.25;9.35;;;25.70;58.10;;;;;;6106626;28;80926;-63
2021/08/14 04:31:44;;;;;;;13.70;9.23;;;25.70;58.50;;;;;;6114338;28;80298;-61
2021/08/14 04:34:44;;;;;;;12.13;8.75;;;25.80;58.70;;;;;;6113293;28;80458;-61
2021/08/14 04:37:45;;;;;;;14.45;8.77;;;25.80;58.30;;;;;;6096943;28;80370;-61
2021/08/14 04:40:46;;;;;;;11.88;8.90;;;25.80;58.40;;;;;;6112866;28;80397;-62
2021/08/14 04:43:47;;;;;;;11.45;9.10;;;25.80;58.30;;;;;;6117891;28;80683;-62
2021/08/14 04:46:47;;;;;;;11.40;8.15;;;25.90;58.50;;;;;;6111649;28;80894;-62
2021/08/14 04:49:48;;;;;;;10.98;7.20;;;25.90;58.30;;;;;;6112118;28;80391;-62
2021/08/14 04:52:48;;;;;;;11.43;7.78;;;25.80;58.30;;;;;;6091058;28;81696;-62
2021/08/14 04:55:49;;;;;;;10.18;8.13;;;25.80;58.20;;;;;;6119450;28;80898;-64
2021/08/14 04:58:49;;;;;;;13.70;7.45;;;25.80;58.30;;;;;;6111976;28;80615;-64
2021/08/14 05:01:50;;;;;;;8.65;6.97;;;25.80;58.50;;;;;;6114285;28;80704;-64
2021/08/14 05:04:50;;;;;;;10.88;7.53;;;25.80;58.50;;;;;;6113664;28;81500;-64
2021/08/14 05:07:51;;;;;;;11.07;7.07;;;25.80;58.60;;;;;;6111092;28;80875;-63
2021/08/14 05:10:51;;;;;;;9.52;7.05;;;25.80;58.70;;;;;;6112670;28;80833;-63
2021/08/14 05:13:52;;;;;;;12.93;8.25;;;25.90;59.00;;;;;;6112617;28;80464;-63
2021/08/14 05:16:52;;;;;;;10.52;7.82;;;25.90;58.90;;;;;;6110764;28;80628;-63
2021/08/14 05:19:53;;;;;;;11.15;7.32;;;25.90;59.00;;;;;;6108699;28;80515;-63
2021/08/14 05:22:53;;;;;;;10.18;7.72;;;25.90;59.00;;;;;;6113103;28;81040;-62
2021/08/14 05:25:53;;;;;;;9.07;7.30;;;26.00;59.00;;;;;;6112079;28;81180;-63
2021/08/14 05:28:54;;;;;;;12.32;7.00;;;26.00;59.10;;;;;;6114201;28;80342;-62
2021/08/14 05:31:55;;;;;;;12.73;7.10;;;26.00;59.30;;;;;;6113194;28;80647;-62
2021/08/14 05:34:55;;;;;;;8.00;6.00;;;26.00;59.20;;;;;;6111234;28;81247;-63
2021/08/14 05:37:56;;;;;;;9.82;6.68;;;26.00;59.90;;;;;;6114331;28;80409;-62
2021/08/14 05:40:56;;;;;;;8.88;6.50;;;26.00;59.60;;;;;;6119838;28;80902;-62
2021/08/14 05:43:57;;;;;;;10.13;7.43;;;26.00;59.80;;;;;;6122156;28;80860;-62
2021/08/14 05:46:57;;;;;;;9.30;7.13;;;26.00;60.10;;;;;;6114563;28;80526;-63
2021/08/14 05:49:58;;;;;;;16.88;7.78;;;26.00;60.30;;;;;;6108016;28;80567;-62
2021/08/14 05:52:58;;;;;;;9.55;7.40;;;26.10;59.50;;;;;;6093870;28;81752;-62
2021/08/14 05:55:59;;;;;;;12.27;7.65;;;26.10;60.10;;;;;;6110022;28;84228;-63
2021/08/14 05:58:59;;;;;;;10.02;7.07;;;26.10;60.10;;;;;;6112286;28;81029;-63
2021/08/14 06:02:00;;;;;;;9.88;6.97;;;26.10;59.70;;;;;;6106665;28;80445;-64
2021/08/14 06:05:00;;;;;;;11.07;7.80;;;26.10;60.00;;;;;;6109595;28;80778;-64
2021/08/14 06:08:01;;;;;;;11.85;7.75;;;26.10;60.30;;;;;;6107139;28;80429;-64
2021/08/14 06:11:01;;;;;;;10.77;8.13;;;26.10;59.50;;;;;;6110219;28;81228;-64
2021/08/14 06:14:02;;;;;;;15.98;9.88;;;26.10;60.00;;;;;;6079796;28;80644;-64
2021/08/14 06:17:02;;;;;;;18.08;8.77;;;26.10;59.70;;;;;;6110958;28;81279;-64
2021/08/14 06:20:03;;;;;;;16.27;9.73;;;26.10;60.50;;;;;;6112626;28;80996;-64
2021/08/14 06:23:03;;;;;;;12.93;9.30;;;26.20;60.60;;;;;;6112345;28;87097;-64
2021/08/14 06:26:04;;;;;;;15.13;8.45;;;26.20;60.40;;;;;;6112967;28;80652;-64
2021/08/14 06:29:04;;;;;;;12.65;8.32;;;26.20;60.10;;;;;;6116137;28;80908;-63
2021/08/14 06:32:05;;;;;;;11.02;7.70;;;26.20;61.10;;;;;;6113048;28;81457;-63
2021/08/14 06:35:05;;;;;;;11.38;7.03;;;26.10;61.20;;;;;;6116220;28;80542;-64
2021/08/14 06:38:06;;;;;;;13.07;6.93;;;26.00;61.40;;;;;;6113949;28;80911;-64
2021/08/14 06:41:06;;;;;;;10.00;7.38;;;25.90;61.60;;;;;;6110229;28;81651;-63
2021/08/14 06:44:07;;;;;;;11.50;6.80;;;25.80;61.80;;;;;;6111617;28;80358;-65
2021/08/14 06:47:07;;;;;;;10.55;6.53;;;25.90;61.70;;;;;;6109732;28;81064;-64
2021/08/14 06:50:08;;;;;;;9.35;6.72;;;25.90;61.40;;;;;;6104712;28;80346;-64
2021/08/14 06:53:08;;;;;;;9.30;6.78;;;25.90;61.60;;;;;;6105132;28;81176;-64
2021/08/14 06:56:09;;;;;;;8.00;6.18;;;26.00;61.20;;;;;;6104473;28;80441;-64
2021/08/14 06:59:09;;;;;;;8.52;6.40;;;26.00;60.90;;;;;;6109349;28;80854;-66
2021/08/14 07:02:10;;;;;;;15.38;7.05;;;26.10;60.60;;;;;;6107421;28;80579;-64
2021/08/14 07:05:10;;;;;;;10.30;7.53;;;26.10;61.00;;;;;;6092050;28;83392;-65
2021/08/14 07:08:11;;;;;;;10.57;7.57;;;26.10;61.10;;;;;;6089082;28;81809;-65
2021/08/14 07:11:11;;;;;;;9.05;6.40;;;26.10;60.90;;;;;;6110509;28;81367;-64
2021/08/14 07:14:12;;;;;;;9.60;7.15;;;26.20;60.90;;;;;;6107717;28;81507;-63
2021/08/14 07:17:13;;;;;;;9.93;6.75;;;26.20;60.70;;;;;;6105075;28;80454;-63
2021/08/14 07:20:13;;;;;;;9.68;7.05;;;26.20;60.20;;;;;;6109236;28;81434;-63
2021/08/14 07:23:14;;;;;;;10.57;6.75;;;26.30;60.60;;;;;;6073690;28;80521;-63
2021/08/14 07:26:14;;;;;;;10.43;6.63;;;26.30;60.50;;;;;;6111053;28;80760;-63
2021/08/14 07:29:15;;;;;;;9.40;6.20;;;26.20;60.60;;;;;;6107431;28;80580;-65
2021/08/14 07:32:15;;;;;;;9.85;6.65;;;26.30;61.00;;;;;;6110110;28;80553;-65
2021/08/14 07:35:16;;;;;;;8.48;6.85;;;26.20;60.80;;;;;;6109168;28;81259;-64
2021/08/14 07:38:16;;;;;;;9.52;6.78;;;26.20;60.60;;;;;;6110885;28;80681;-65
2021/08/14 07:41:16;;;;;;;13.48;6.72;;;26.20;60.70;;;;;;6091871;28;80536;-62
2021/08/14 07:44:17;;;;;;;11.60;7.28;;;26.20;60.70;;;;;;6093022;28;81825;-63
2021/08/14 07:47:19;;;;;;;11.18;7.50;;;26.20;60.40;;;;;;6110444;28;81212;-63
2021/08/14 07:50:20;;;;;;;10.57;6.75;;;26.30;60.80;;;;;;6093030;28;80413;-63
2021/08/14 07:53:20;;;;;;;8.98;6.72;;;26.30;60.60;;;;;;6094840;28;81737;-63
2021/08/14 07:56:22;;;;;;;8.82;6.63;;;26.40;60.90;;;;;;6110486;28;80969;-64
2021/08/14 07:59:22;;;;;;;19.10;7.80;;;26.40;60.90;;;;;;6108375;28;80804;-64
2021/08/14 08:02:23;;;;;;;11.15;7.05;;;26.40;60.40;;;;;;6109995;28;80539;-65
2021/08/14 08:05:23;;;;;;;11.05;7.70;;;26.40;60.00;;;;;;6107745;28;80561;-63
2021/08/14 08:08:24;;;;;;;9.52;6.68;;;26.40;60.00;;;;;;6105956;28;80483;-63
2021/08/14 08:11:24;;;;;;;7.57;6.30;;;26.50;60.00;;;;;;6098204;28;80474;-64
2021/08/14 08:14:25;;;;;;;10.68;6.80;;;26.50;60.20;;;;;;6107282;28;80700;-63
2021/08/14 08:17:25;;;;;;;9.50;6.38;;;26.50;60.00;;;;;;6090564;28;81814;-61
2021/08/14 08:20:26;;;;;;;9.35;6.53;;;26.50;59.80;;;;;;6110642;28;81381;-63
2021/08/14 08:23:26;;;;;;;9.52;6.57;;;26.60;59.90;;;;;;6111025;28;80604;-63
2021/08/14 08:26:27;;;;;;;9.13;6.35;;;26.70;60.30;;;;;;6093329;28;80862;-63
2021/08/14 08:29:27;;;;;;;9.10;7.15;;;26.70;60.10;;;;;;6109641;28;80177;-63
2021/08/14 08:32:28;;;;;;;8.82;6.70;;;26.80;59.80;;;;;;6112170;28;81317;-63
2021/08/14 08:35:28;;;;;;;10.73;7.55;;;26.80;60.20;;;;;;6106232;28;81553;-63
2021/08/14 08:38:28;;;;;;;12.23;6.65;;;26.90;60.10;;;;;;6111311;28;80783;-64
2021/08/14 08:41:29;;;;;;;10.85;7.20;;;26.80;60.10;;;;;;6095321;28;81187;-65
2021/08/14 08:44:29;;;;;;;8.75;6.38;;;26.90;59.80;;;;;;6115054;28;80909;-63
2021/08/14 08:47:30;;;;;;;12.02;7.43;;;26.90;59.50;;;;;;6115947;28;81180;-64
2021/08/14 08:50:30;;;;;;;9.80;6.85;;;27.00;59.20;;;;;;6112677;28;81076;-64
2021/08/14 08:53:31;;;;;;;9.82;6.75;;;27.00;59.30;;;;;;6113250;28;80997;-64
2021/08/14 08:56:32;;;;;;;8.95;6.80;;;27.00;59.10;;;;;;6098660;28;81734;-64
2021/08/14 08:59:32;;;;;;;9.88;6.93;;;27.00;59.70;;;;;;6113703;28;81197;-64
2021/08/14 09:02:33;;;;;;;11.95;7.28;;;27.10;60.30;;;;;;6116276;28;80646;-63
2021/08/14 09:05:33;;;;;;;11.45;7.13;;;27.00;59.90;;;;;;6112111;28;80399;-63
2021/08/14 09:08:33;;;;;;;13.15;8.07;;;27.10;60.10;;;;;;6112527;28;80966;-64
2021/08/14 09:11:34;;;;;;;10.30;7.30;;;27.20;60.80;;;;;;6111936;28;81541;-65
2021/08/14 09:14:34;;;;;;;10.95;7.45;;;27.10;60.00;;;;;;6112755;28;80428;-65
2021/08/14 09:17:35;;;;;;;11.75;7.85;;;27.20;60.40;;;;;;6112755;28;81106;-64
2021/08/14 09:20:35;;;;;;;15.43;7.75;;;27.20;60.00;;;;;;6110220;28;87440;-63
2021/08/14 09:23:36;;;;;;;10.60;6.80;;;27.20;59.20;;;;;;6107158;28;80503;-64
2021/08/14 09:26:36;;;;;;;13.32;8.05;;;27.30;59.30;;;;;;6087097;28;80676;-64
2021/08/14 09:29:37;;;;;;;11.63;7.80;;;27.20;59.40;;;;;;6087420;28;80376;-64
2021/08/14 09:32:37;;;;;;;13.60;7.93;;;27.20;59.90;;;;;;6078513;28;80426;-65
2021/08/14 09:35:38;;;;;;;10.05;7.68;;;27.10;60.30;;;;;;6087665;28;81781;-64
2021/08/14 09:38:38;;;;;;;14.30;8.55;;;27.20;60.50;;;;;;6104724;28;81613;-65
2021/08/14 09:41:39;;;;;;;9.82;7.35;;;27.30;60.50;;;;;;6079359;28;80676;-63
2021/08/14 09:44:39;;;;;;;12.90;7.55;;;27.30;60.30;;;;;;6114804;28;80713;-65
2021/08/14 09:47:40;;;;;;;12.15;8.02;;;27.30;61.00;;;;;;6107099;28;80723;-61
2021/08/14 09:50:40;;;;;;;12.38;7.13;;;27.40;61.10;;;;;;6116967;28;80537;-61
2021/08/14 09:53:41;;;;;;;10.25;7.72;;;27.30;61.00;;;;;;6110868;28;80219;-61
2021/08/14 09:56:41;;;;;;;12.93;8.05;;;27.40;61.10;;;;;;6116294;28;81390;-65
2021/08/14 09:59:42;;;;;;;13.32;7.65;;;27.40;61.30;;;;;;6109986;28;81108;-67
2021/08/14 10:02:42;;;;;;;15.43;8.35;;;27.40;60.90;;;;;;6120479;28;80411;-69
2021/08/14 10:05:43;;;;;;;20.30;8.93;;;27.50;61.00;;;;;;6115952;28;80945;-65
2021/08/14 10:08:43;;;;;;;18.17;8.63;;;27.60;60.40;;;;;;6095282;28;81391;-65
2021/08/14 10:11:45;;;;;;;9.18;7.68;;;27.60;60.30;;;;;;6122051;28;81284;-67
2021/08/14 10:14:45;;;;;;;10.80;8.38;;;27.60;60.90;;;;;;6111241;28;80978;-66
2021/08/14 10:17:46;;;;;;;14.73;9.13;;;27.60;60.10;;;;;;6114867;28;80408;-66
2021/08/14 10:20:46;;;;;;;14.30;8.75;;;27.70;60.20;;;;;;6104747;28;80600;-67
2021/08/14 10:23:47;;;;;;;12.82;8.75;;;27.70;59.90;;;;;;6113209;28;80732;-66
2021/08/14 10:26:47;;;;;;;10.57;8.30;;;27.70;60.00;;;;;;6106738;28;81173;-66
2021/08/14 10:29:48;;;;;;;12.32;9.32;;;27.70;60.00;;;;;;6111619;28;80382;-66
2021/08/14 10:32:49;;;;;;;10.75;8.25;;;27.70;60.00;;;;;;6100450;28;80296;-68
2021/08/14 10:35:49;;;;;;;15.63;9.02;;;27.70;59.40;;;;;;6110934;28;81014;-66
2021/08/14 10:38:52;;;;;;;12.15;8.55;;;27.80;59.20;;;;;;6107172;28;80610;-66
2021/08/14 10:41:53;;;;;;;11.80;9.07;;;27.90;59.20;;;;;;6093521;28;80526;-67
2021/08/14 10:44:56;;;;;;;10.55;8.48;;;27.80;59.10;;;;;;6113077;28;80628;-67
2021/08/14 10:47:59;;;;;;;10.15;8.52;;;27.80;59.40;;;;;;6110257;28;80684;-66
2021/08/14 10:51:01;;;;;;;12.60;8.82;;;27.70;59.50;;;;;;6104975;28;80582;-66
2021/08/14 10:54:01;;;;;;;11.65;8.80;;;27.70;60.00;;;;;;6110748;28;81069;-66
2021/08/14 10:57:02;;;;;;;12.70;9.73;;;27.80;60.40;;;;;;6111350;28;80169;-66
2021/08/14 11:00:02;;;;;;;10.68;8.98;;;27.80;59.70;;;;;;6110883;28;80500;-66
2021/08/14 11:03:03;;;;;;;12.07;9.25;;;27.80;59.90;;;;;;6112278;28;81523;-66
2021/08/14 11:06:03;;;;;;;14.65;9.73;;;27.90;60.10;;;;;;6091310;28;80605;-67
2021/08/14 11:09:04;;;;;;;13.05;8.82;;;27.90;59.80;;;;;;6114642;28;80932;-67
2021/08/14 11:12:04;;;;;;;15.57;8.52;;;28.00;59.50;;;;;;6107014;28;80306;-66
2021/08/14 11:15:05;;;;;;;13.00;8.63;;;27.90;59.90;;;;;;6098525;28;80679;-67
2021/08/14 11:18:05;;;;;;;11.63;9.18;;;27.90;59.80;;;;;;6107571;28;80789;-67
2021/08/14 11:21:06;;;;;;;13.63;9.40;;;27.90;60.00;;;;;;6111273;28;80875;-64
2021/08/14 11:24:06;;;;;;;19.98;10.77;;;27.70;60.20;;;;;;6111639;28;80593;-66
2021/08/14 11:27:07;;;;;;;11.93;9.27;;;27.80;61.10;;;;;;6107505;28;83124;-65
2021/08/14 11:30:07;;;;;;;12.93;8.90;;;27.80;60.00;;;;;;6111810;28;82762;-66
2021/08/14 11:33:08;;;;;;;11.50;9.65;;;27.90;58.80;;;;;;6093156;28;80611;-65
2021/08/14 11:36:08;;;;;;;12.82;8.90;;;28.00;58.30;;;;;;6110581;28;81102;-66
2021/08/14 11:39:09;;;;;;;16.63;9.30;;;28.10;58.30;;;;;;6106176;28;81152;-66
2021/08/14 11:42:10;;;;;;;12.00;9.18;;;28.00;58.50;;;;;;6113082;28;80588;-66
2021/08/14 11:45:12;;;;;;;14.85;8.77;;;28.00;58.80;;;;;;6107541;28;80478;-66
2021/08/14 11:48:12;;;;;;;13.15;9.70;;;27.90;59.30;;;;;;6111649;28;80567;-66
2021/08/14 11:51:13;;;;;;;15.93;9.80;;;27.90;59.40;;;;;;6110662;28;80756;-66
2021/08/14 11:54:15;;;;;;;12.30;9.07;;;27.80;59.50;;;;;;6109783;28;80558;-65
2021/08/14 11:57:16;;;;;;;13.48;9.73;;;27.80;59.70;;;;;;6114649;28;80509;-66
2021/08/14 12:00:16;;;;;;;12.57;9.52;;;27.80;59.70;;;;;;6097835;28;80416;-66
2021/08/14 12:03:17;;;;;;;15.07;9.88;;;27.80;59.90;;;;;;6111019;28;80558;-66
2021/08/14 12:06:18;;;;;;;11.73;9.35;;;27.80;60.00;;;;;;6111450;28;80269;-66
2021/08/14 12:09:18;;;;;;;15.00;9.45;;;27.80;60.10;;;;;;6114394;28;80858;-66
2021/08/14 12:12:19;;;;;;;14.63;9.82;;;27.70;60.20;;;;;;6112251;28;81700;-66
2021/08/14 12:15:19;;;;;;;13.23;9.35;;;27.70;59.60;;;;;;6119795;28;80698;-67
2021/08/14 12:18:20;;;;;;;11.95;8.85;;;27.70;58.30;;;;;;6114028;28;80745;-66
2021/08/14 12:21:20;;;;;;;12.68;8.30;;;27.90;58.40;;;;;;6115436;28;80940;-66
2021/08/14 12:24:21;;;;;;;11.02;9.02;;;27.90;58.10;;;;;;6114399;28;80705;-66
2021/08/14 12:27:21;;;;;;;11.18;9.18;;;28.00;58.60;;;;;;6114111;28;81071;-65
2021/08/14 12:30:22;;;;;;;15.70;9.45;;;28.00;57.90;;;;;;6114867;28;81189;-66
2021/08/14 12:33:22;;;;;;;11.85;8.63;;;28.10;57.40;;;;;;6115177;28;80819;-66
2021/08/14 12:36:23;;;;;;;12.85;8.25;;;28.00;58.10;;;;;;6114855;28;80734;-66
2021/08/14 12:39:23;;;;;;;13.18;8.90;;;27.90;58.40;;;;;;6114369;28;80725;-66
2021/08/14 12:42:24;;;;;;;18.83;8.75;;;27.90;58.60;;;;;;6112873;28;80689;-66
2021/08/14 12:45:24;;;;;;;10.82;8.65;;;27.90;58.20;;;;;;6110916;28;81143;-65
2021/08/14 12:48:25;;;;;;;14.52;9.20;;;27.90;58.00;;;;;;6111742;28;80535;-65
2021/08/14 12:51:25;;;;;;;10.35;8.57;;;28.00;57.90;;;;;;6113554;28;80462;-65
2021/08/14 12:54:26;;;;;;;12.88;9.07;;;27.90;58.30;;;;;;6093343;28;81468;-65
2021/08/14 12:57:26;;;;;;;12.23;8.52;;;27.90;58.50;;;;;;6114208;28;80541;-65
2021/08/14 13:00:27;;;;;;;15.82;8.30;;;27.90;57.90;;;;;;6113659;28;81981;-64
2021/08/14 13:03:27;;;;;;;11.38;8.70;;;27.90;58.40;;;;;;6114619;28;80149;-63
2021/08/14 13:06:28;;;;;;;13.82;9.55;;;27.90;58.60;;;;;;6113064;28;80409;-65
2021/08/14 13:09:28;;;;;;;11.88;8.70;;;27.80;58.30;;;;;;6105070;28;80528;-66
2021/08/14 13:12:29;;;;;;;12.70;8.85;;;27.90;58.50;;;;;;6113715;28;81690;-65
2021/08/14 13:15:29;;;;;;;12.30;9.23;;;27.90;57.90;;;;;;6111751;28;80355;-66
2021/08/14 13:18:31;;;;;;;12.75;9.18;;;28.00;56.90;;;;;;6113912;28;80808;-65
2021/08/14 13:21:31;;;;;;;14.40;10.60;;;28.00;57.20;;;;;;6115063;28;80881;-65
2021/08/14 13:24:32;;;;;;;13.27;10.05;;;28.00;57.40;;;;;;6109959;28;83093;-65
2021/08/14 13:27:32;;;;;;;14.95;9.68;;;27.90;57.90;;;;;;6112929;28;83229;-65
2021/08/14 13:30:34;;;;;;;11.60;8.95;;;27.90;58.40;;;;;;6112702;28;84200;-65
2021/08/14 13:33:35;;;;;;;11.68;8.70;;;27.90;58.30;;;;;;6107399;28;80273;-65
2021/08/14 13:36:35;;;;;;;14.32;9.63;;;27.90;58.30;;;;;;6112978;28;80544;-65
2021/08/14 13:39:36;;;;;;;13.43;9.18;;;27.90;57.80;;;;;;6111087;28;85138;-65
2021/08/14 13:42:36;;;;;;;10.88;9.07;;;27.90;57.00;;;;;;6110738;28;80496;-66
2021/08/14 13:45:37;;;;;;;11.00;8.50;;;27.90;57.50;;;;;;6107548;28;80223;-64
2021/08/14 13:48:37;;;;;;;13.38;9.80;;;27.90;57.50;;;;;;6109176;28;80487;-65
2021/08/14 13:51:38;;;;;;;13.05;9.20;;;27.80;57.60;;;;;;6112530;28;82882;-65
2021/08/14 13:54:38;;;;;;;12.73;9.25;;;27.80;57.90;;;;;;6115960;28;80749;-67
2021/08/14 13:57:39;;;;;;;13.35;9.77;;;27.80;58.20;;;;;;6110809;28;81208;-65
2021/08/14 14:00:39;;;;;;;13.15;9.05;;;27.80;58.10;;;;;;6108286;28;81020;-66
2021/08/14 14:03:40;;;;;;;14.40;9.68;;;27.80;57.80;;;;;;6111139;28;80272;-66
2021/08/14 14:06:40;;;;;;;13.68;9.55;;;27.80;58.00;;;;;;6113148;28;80751;-65
2021/08/14 14:09:41;;;;;;;13.68;9.23;;;27.70;58.30;;;;;;6080446;28;82170;-66
2021/08/14 14:12:41;;;;;;;15.10;9.68;;;27.70;58.40;;;;;;6110620;28;80736;-67
2021/08/14 14:15:42;;;;;;;12.23;8.70;;;27.70;58.30;;;;;;6113740;28;81679;-66
2021/08/14 14:18:42;;;;;;;11.20;9.40;;;27.70;58.50;;;;;;6116373;28;80455;-66
2021/08/14 14:21:43;;;;;;;12.63;9.38;;;27.70;58.80;;;;;;6113106;28;80568;-67
2021/08/14 14:24:43;;;;;;;13.13;9.95;;;27.70;58.80;;;;;;6114778;28;81314;-65
2021/08/14 14:27:46;;;;;;;12.70;9.82;;;27.70;59.00;;;;;;6110264;28;80862;-65
2021/08/14 14:30:47;;;;;;;12.32;9.63;;;27.70;59.40;;;;;;6094927;28;81914;-66
2021/08/14 14:33:47;;;;;;;15.65;10.73;;;27.70;59.10;;;;;;6112983;28;81502;-66
2021/08/14 14:36:47;;;;;;;14.23;10.48;;;27.70;59.50;;;;;;6109170;28;83058;-66
2021/08/14 14:39:48;;;;;;;13.40;9.98;;;27.70;59.60;;;;;;6109514;28;83046;-66
2021/08/14 14:42:48;;;;;;;12.30;9.63;;;27.80;58.90;;;;;;6106686;28;84083;-66
2021/08/14 14:45:49;;;;;;;14.93;10.05;;;27.90;58.60;;;;;;6109611;28;82850;-66
2021/08/14 14:48:49;;;;;;;11.38;9.40;;;27.80;58.60;;;;;;6091778;28;84419;-64
2021/08/14 14:51:50;;;;;;;13.35;9.50;;;27.90;57.90;;;;;;6113362;28;83103;-66
2021/08/14 14:54:50;;;;;;;15.75;10.38;;;27.90;57.30;;;;;;6112799;28;80581;-65
2021/08/14 14:57:51;;;;;;;16.27;10.10;;;27.90;57.70;;;;;;6089765;28;83376;-65
2021/08/14 15:00:51;;;;;;;15.30;10.15;;;27.90;57.90;;;;;;6091338;28;83772;-66
2021/08/14 15:03:52;;;;;;;16.67;10.02;;;27.90;58.20;;;;;;6108995;28;83090;-63
2021/08/14 15:06:52;;;;;;;16.33;10.85;;;27.90;58.10;;;;;;6108757;28;83385;-64
2021/08/14 15:09:53;;;;;;;14.15;10.65;;;27.90;57.70;;;;;;6090576;28;83057;-63
2021/08/14 15:12:53;;;;;;;15.05;9.88;;;27.90;57.90;;;;;;6109264;28;83336;-63
2021/08/14 15:15:54;;;;;;;16.05;10.10;;;27.90;57.50;;;;;;6111771;28;84487;-63
2021/08/14 15:18:54;;;;;;;15.38;11.10;;;27.90;57.60;;;;;;6107015;28;83242;-64
2021/08/14 15:21:55;;;;;;;14.57;10.40;;;27.90;58.10;;;;;;6104844;28;83363;-63
2021/08/14 15:24:55;;;;;;;17.80;10.82;;;27.90;58.10;;;;;;6109868;28;83435;-63
2021/08/14 15:27:56;;;;;;;18.50;11.60;;;27.90;58.30;;;;;;6107398;28;82850;-64